createdAt,value
2017-08-09T00:00:33.754Z,26.5
2017-08-09T00:01:36.720Z,26.6
2017-08-09T00:02:37.088Z,26.6
2017-08-09T00:03:33.735Z,26.6
2017-08-09T00:04:33.697Z,26.5
2017-08-09T00:05:36.996Z,26.5
2017-08-09T00:06:33.808Z,26.5
2017-08-09T00:07:36.718Z,26.5
2017-08-09T00:08:34.246Z,26.5
2017-08-09T00:09:34.317Z,26.5
2017-08-09T00:10:38.975Z,26.5
2017-08-09T00:11:39.344Z,26.5
2017-08-09T00:12:34.100Z,26.6
2017-08-09T00:13:39.127Z,26.6
2017-08-09T00:14:37.377Z,26.5
2017-08-09T00:15:39.528Z,26.5
2017-08-09T00:16:37.463Z,26.5
2017-08-09T00:17:34.379Z,26.5
2017-08-09T00:18:37.624Z,26.5
2017-08-09T00:19:34.780Z,26.6
2017-08-09T00:20:38.084Z,26.6
2017-08-09T00:21:37.796Z,26.5
2017-08-09T00:22:37.793Z,26.5
2017-08-09T00:23:34.706Z,26.5
2017-08-09T00:24:40.040Z,26.5
2017-08-09T00:25:38.063Z,26.5
2017-08-09T00:26:38.066Z,26.5
2017-08-09T00:27:34.902Z,26.5
2017-08-09T00:28:35.326Z,26.5
2017-08-09T00:29:40.407Z,26.5
2017-08-09T00:30:40.478Z,26.5
2017-08-09T00:31:35.581Z,26.5
2017-08-09T00:32:40.847Z,26.5
2017-08-09T00:33:40.278Z,26.5
2017-08-09T00:34:35.379Z,26.5
2017-08-09T00:35:35.450Z,26.5
2017-08-09T00:36:35.833Z,26.5
2017-08-09T00:37:40.520Z,26.5
2017-08-09T00:38:41.135Z,26.5
2017-08-09T00:39:38.444Z,26.5
2017-08-09T00:40:38.485Z,26.5
2017-08-09T00:41:40.988Z,26.5
2017-08-09T00:42:40.989Z,26.5
2017-08-09T00:43:35.794Z,26.5
2017-08-09T00:44:41.176Z,26.5
2017-08-09T00:45:35.863Z,26.5
2017-08-09T00:46:35.968Z,26.6
2017-08-09T00:47:39.257Z,26.5
2017-08-09T00:48:41.081Z,26.5
2017-08-09T00:49:36.458Z,26.5
2017-08-09T00:50:41.462Z,26.5
2017-08-09T00:51:36.648Z,26.4
2017-08-09T00:52:41.653Z,26.5
2017-08-09T00:53:39.256Z,26.5
2017-08-09T00:54:41.448Z,26.5
2017-08-09T00:55:36.524Z,26.5
2017-08-09T00:56:41.870Z,26.5
2017-08-09T00:57:39.526Z,26.4
2017-08-09T00:58:36.716Z,26.4
2017-08-09T00:59:37.123Z,26.4
2017-08-09T01:00:42.123Z,26.4
2017-08-09T01:01:37.168Z,26.5
2017-08-09T01:02:40.420Z,26.5
2017-08-09T01:03:37.034Z,26.5
2017-08-09T01:04:42.086Z,26.5
2017-08-09T01:05:40.043Z,26.5
2017-08-09T01:06:42.584Z,26.5
2017-08-09T01:07:42.613Z,26.5
2017-08-09T01:08:43.652Z,26.5
2017-08-09T01:09:37.467Z,26.5
2017-08-09T01:10:37.875Z,26.5
2017-08-09T01:11:37.954Z,26.5
2017-08-09T01:12:40.530Z,26.5
2017-08-09T01:13:43.293Z,26.5
2017-08-09T01:14:38.984Z,26.5
2017-08-09T01:15:38.362Z,26.5
2017-08-09T01:16:41.480Z,26.5
2017-08-09T01:17:42.809Z,26.5
2017-08-09T01:18:38.843Z,26.5
2017-08-09T01:19:38.865Z,26.5
2017-08-09T01:20:38.238Z,26.5
2017-08-09T01:21:38.040Z,26.5
2017-08-09T01:22:43.024Z,26.5
2017-08-09T01:23:43.948Z,26.5
2017-08-09T01:24:43.716Z,26.5
2017-08-09T01:25:40.663Z,26.5
2017-08-09T01:26:45.168Z,26.5
2017-08-09T01:27:42.528Z,26.5
2017-08-09T01:28:39.767Z,26.5
2017-08-09T01:29:40.010Z,26.5
2017-08-09T01:30:45.627Z,26.5
2017-08-09T01:31:39.256Z,26.5
2017-08-09T01:32:44.568Z,26.5
2017-08-09T01:33:38.686Z,26.5
2017-08-09T01:34:44.920Z,26.5
2017-08-09T01:35:42.561Z,26.5
2017-08-09T01:36:39.107Z,26.5
2017-08-09T01:37:42.689Z,26.5
2017-08-09T01:38:40.326Z,26.5
2017-08-09T01:39:42.782Z,26.5
2017-08-09T01:40:42.195Z,26.5
2017-08-09T01:41:39.032Z,26.4
2017-08-09T01:42:44.084Z,26.5
2017-08-09T01:43:44.038Z,26.5
2017-08-09T01:44:39.807Z,26.5
2017-08-09T01:45:39.597Z,26.5
2017-08-09T01:46:39.440Z,26.5
2017-08-09T01:47:44.603Z,26.5
2017-08-09T01:48:42.510Z,26.5
2017-08-09T01:49:44.424Z,26.5
2017-08-09T01:50:45.016Z,26.5
2017-08-09T01:51:45.287Z,26.4
2017-08-09T01:52:39.558Z,26.5
2017-08-09T01:53:39.579Z,26.5
2017-08-09T01:54:44.861Z,26.5
2017-08-09T01:55:39.934Z,26.4
2017-08-09T01:56:40.466Z,26.5
2017-08-09T01:57:43.211Z,26.5
2017-08-09T01:58:40.423Z,26.5
2017-08-09T01:59:45.412Z,26.4
2017-08-09T02:00:45.145Z,26.5
2017-08-09T02:01:41.571Z,26.5
2017-08-09T02:02:40.520Z,26.4
2017-08-09T02:03:45.846Z,26.5
2017-08-09T02:04:40.670Z,26.5
2017-08-09T02:05:40.321Z,26.5
2017-08-09T02:06:46.220Z,26.5
2017-08-09T02:07:43.729Z,26.5
2017-08-09T02:08:41.313Z,26.5
2017-08-09T02:09:40.752Z,26.5
2017-08-09T02:10:41.755Z,26.4
2017-08-09T02:11:44.264Z,26.5
2017-08-09T02:12:42.885Z,26.5
2017-08-09T02:13:43.937Z,26.4
2017-08-09T02:14:45.919Z,26.5
2017-08-09T02:15:41.444Z,26.5
2017-08-09T02:16:45.983Z,26.5
2017-08-09T02:17:43.673Z,26.4
2017-08-09T02:18:44.057Z,26.5
2017-08-09T02:19:44.107Z,26.4
2017-08-09T02:20:47.589Z,26.5
2017-08-09T02:21:41.386Z,26.5
2017-08-09T02:22:46.782Z,26.4
2017-08-09T02:23:46.352Z,26.5
2017-08-09T02:24:46.400Z,26.5
2017-08-09T02:25:41.375Z,26.5
2017-08-09T02:26:41.740Z,26.5
2017-08-09T02:27:46.212Z,26.5
2017-08-09T02:28:41.588Z,26.5
2017-08-09T02:29:44.225Z,26.5
2017-08-09T02:30:46.796Z,26.5
2017-08-09T02:31:42.123Z,26.5
2017-08-09T02:32:44.719Z,26.5
2017-08-09T02:33:41.695Z,26.4
2017-08-09T02:34:43.604Z,26.5
2017-08-09T02:35:47.869Z,26.5
2017-08-09T02:36:45.050Z,26.5
2017-08-09T02:37:44.762Z,26.5
2017-08-09T02:38:42.491Z,26.5
2017-08-09T02:39:42.238Z,26.5
2017-08-09T02:40:46.934Z,26.5
2017-08-09T02:41:47.228Z,26.5
2017-08-09T02:42:42.057Z,26.5
2017-08-09T02:43:45.139Z,26.4
2017-08-09T02:44:43.465Z,26.5
2017-08-09T02:45:42.972Z,26.5
2017-08-09T02:46:43.016Z,26.5
2017-08-09T02:47:48.212Z,26.5
2017-08-09T02:48:43.162Z,26.5
2017-08-09T02:49:47.935Z,26.5
2017-08-09T02:50:45.696Z,26.5
2017-08-09T02:51:42.612Z,26.4
2017-08-09T02:52:42.612Z,26.5
2017-08-09T02:53:45.492Z,26.5
2017-08-09T02:54:45.853Z,26.5
2017-08-09T02:55:45.907Z,26.5
2017-08-09T02:56:42.997Z,26.4
2017-08-09T02:57:45.972Z,26.4
2017-08-09T02:58:46.052Z,26.4
2017-08-09T02:59:42.690Z,26.4
2017-08-09T03:00:45.977Z,26.3
2017-08-09T03:01:47.872Z,26.4
2017-08-09T03:02:43.428Z,26.3
2017-08-09T03:03:45.753Z,26.3
2017-08-09T03:04:43.247Z,26.3
2017-08-09T03:05:43.288Z,26.3
2017-08-09T03:06:43.371Z,26.3
2017-08-09T03:07:43.632Z,26.3
2017-08-09T03:08:48.878Z,26.3
2017-08-09T03:09:43.409Z,26.3
2017-08-09T03:10:43.378Z,26.4
2017-08-09T03:11:46.158Z,26.4
2017-08-09T03:12:48.570Z,26.4
2017-08-09T03:13:46.407Z,26.4
2017-08-09T03:14:43.715Z,26.4
2017-08-09T03:15:46.697Z,26.4
2017-08-09T03:16:48.830Z,26.4
2017-08-09T03:17:43.548Z,26.4
2017-08-09T03:18:48.988Z,26.4
2017-08-09T03:19:48.656Z,26.5
2017-08-09T03:20:44.821Z,26.5
2017-08-09T03:21:49.898Z,26.5
2017-08-09T03:22:48.381Z,26.4
2017-08-09T03:23:44.414Z,26.5
2017-08-09T03:24:44.698Z,26.5
2017-08-09T03:25:44.472Z,26.5
2017-08-09T03:26:49.689Z,26.5
2017-08-09T03:27:49.118Z,26.5
2017-08-09T03:28:49.515Z,26.5
2017-08-09T03:29:44.214Z,26.5
2017-08-09T03:30:47.131Z,26.5
2017-08-09T03:31:44.601Z,26.5
2017-08-09T03:32:45.002Z,26.5
2017-08-09T03:33:44.697Z,26.5
2017-08-09T03:34:47.635Z,26.5
2017-08-09T03:35:48.989Z,26.5
2017-08-09T03:36:47.374Z,26.5
2017-08-09T03:37:47.478Z,26.5
2017-08-09T03:38:50.211Z,26.5
2017-08-09T03:39:44.999Z,26.5
2017-08-09T03:40:47.965Z,26.5
2017-08-09T03:41:47.646Z,26.5
2017-08-09T03:42:45.144Z,26.5
2017-08-09T03:43:48.103Z,26.5
2017-08-09T03:44:45.291Z,26.5
2017-08-09T03:45:45.370Z,26.4
2017-08-09T03:46:45.434Z,26.4
2017-08-09T03:47:45.559Z,26.5
2017-08-09T03:48:45.230Z,26.5
2017-08-09T03:49:50.633Z,26.5
2017-08-09T03:50:45.682Z,26.5
2017-08-09T03:51:45.456Z,26.5
2017-08-09T03:52:48.719Z,26.5
2017-08-09T03:53:45.898Z,26.5
2017-08-09T03:54:48.841Z,26.4
2017-08-09T03:55:48.591Z,26.4
2017-08-09T03:56:49.198Z,26.4
2017-08-09T03:57:48.652Z,26.4
2017-08-09T03:58:48.993Z,26.4
2017-08-09T03:59:49.044Z,26.4
2017-08-09T04:00:49.114Z,26.4
2017-08-09T04:01:50.970Z,26.5
2017-08-09T04:02:49.244Z,26.5
2017-08-09T04:03:49.003Z,26.4
2017-08-09T04:04:49.045Z,26.4
2017-08-09T04:05:51.221Z,26.4
2017-08-09T04:06:46.296Z,26.4
2017-08-09T04:07:46.697Z,26.3
2017-08-09T04:08:49.493Z,26.4
2017-08-09T04:09:49.275Z,26.3
2017-08-09T04:10:49.361Z,26.4
2017-08-09T04:11:46.591Z,26.4
2017-08-09T04:12:49.758Z,26.4
2017-08-09T04:13:46.635Z,26.4
2017-08-09T04:14:52.211Z,26.4
2017-08-09T04:15:49.890Z,26.5
2017-08-09T04:16:49.943Z,26.5
2017-08-09T04:17:46.749Z,26.5
2017-08-09T04:18:49.994Z,26.5
2017-08-09T04:19:47.218Z,26.5
2017-08-09T04:20:50.326Z,26.5
2017-08-09T04:21:47.232Z,26.6
2017-08-09T04:22:51.950Z,26.6
2017-08-09T04:23:47.313Z,26.6
2017-08-09T04:24:47.092Z,26.7
2017-08-09T04:25:49.937Z,26.6
2017-08-09T04:26:52.688Z,26.6
2017-08-09T04:27:52.442Z,26.5
2017-08-09T04:28:52.215Z,26.5
2017-08-09T04:29:50.171Z,26.5
2017-08-09T04:30:52.263Z,26.4
2017-08-09T04:31:47.325Z,26.5
2017-08-09T04:32:52.708Z,26.4
2017-08-09T04:33:52.773Z,26.5
2017-08-09T04:34:47.859Z,26.5
2017-08-09T04:35:51.144Z,26.4
2017-08-09T04:36:52.121Z,26.5
2017-08-09T04:37:48.129Z,26.5
2017-08-09T04:38:48.186Z,26.5
2017-08-09T04:39:50.038Z,26.5
2017-08-09T04:40:51.075Z,26.5
2017-08-09T04:41:51.919Z,26.5
2017-08-09T04:42:55.240Z,26.6
2017-08-09T04:43:54.427Z,26.6
2017-08-09T04:44:51.694Z,26.6
2017-08-09T04:45:48.645Z,26.6
2017-08-09T04:46:52.398Z,26.6
2017-08-09T04:47:48.388Z,26.6
2017-08-09T04:48:48.456Z,26.5
2017-08-09T04:49:53.858Z,26.5
2017-08-09T04:50:48.827Z,26.6
2017-08-09T04:51:51.784Z,26.6
2017-08-09T04:52:48.719Z,26.6
2017-08-09T04:53:49.109Z,26.6
2017-08-09T04:54:52.300Z,26.6
2017-08-09T04:55:54.137Z,26.6
2017-08-09T04:56:54.485Z,26.6
2017-08-09T04:57:51.015Z,26.6
2017-08-09T04:58:49.401Z,26.6
2017-08-09T04:59:54.375Z,26.7
2017-08-09T05:00:49.214Z,26.7
2017-08-09T05:01:54.521Z,26.7
2017-08-09T05:02:50.669Z,26.7
2017-08-09T05:03:52.160Z,26.7
2017-08-09T05:04:54.334Z,26.7
2017-08-09T05:05:53.662Z,26.8
2017-08-09T05:06:51.882Z,26.8
2017-08-09T05:07:49.554Z,26.8
2017-08-09T05:08:49.947Z,26.8
2017-08-09T05:09:49.967Z,26.8
2017-08-09T05:10:49.696Z,26.8
2017-08-09T05:11:55.409Z,26.8
2017-08-09T05:12:49.831Z,26.8
2017-08-09T05:13:50.135Z,26.9
2017-08-09T05:14:57.423Z,26.9
2017-08-09T05:15:50.191Z,26.9
2017-08-09T05:16:55.253Z,26.9
2017-08-09T05:17:55.361Z,26.8
2017-08-09T05:18:50.097Z,26.9
2017-08-09T05:19:57.884Z,26.9
2017-08-09T05:20:50.998Z,26.9
2017-08-09T05:21:50.552Z,26.9
2017-08-09T05:22:51.766Z,27
2017-08-09T05:23:53.314Z,27
2017-08-09T05:24:50.688Z,27
2017-08-09T05:25:57.811Z,27
2017-08-09T05:26:53.878Z,27
2017-08-09T05:27:53.338Z,27
2017-08-09T05:28:55.552Z,27
2017-08-09T05:29:55.829Z,27
2017-08-09T05:30:50.651Z,27
2017-08-09T05:31:57.105Z,27
2017-08-09T05:32:54.251Z,26.9
2017-08-09T05:33:51.855Z,26.9
2017-08-09T05:34:51.196Z,26.9
2017-08-09T05:35:50.970Z,26.9
2017-08-09T05:36:57.308Z,26.9
2017-08-09T05:37:54.547Z,26.9
2017-08-09T05:38:51.371Z,26.9
2017-08-09T05:39:51.057Z,26.9
2017-08-09T05:40:54.338Z,26.9
2017-08-09T05:41:51.998Z,27
2017-08-09T05:42:52.488Z,27
2017-08-09T05:43:54.256Z,27
2017-08-09T05:44:51.739Z,27
2017-08-09T05:45:51.456Z,27
2017-08-09T05:46:56.730Z,27.1
2017-08-09T05:47:53.977Z,27.1
2017-08-09T05:48:51.904Z,27.1
2017-08-09T05:49:56.618Z,27.2
2017-08-09T05:50:51.921Z,27.2
2017-08-09T05:51:54.526Z,27.2
2017-08-09T05:52:51.782Z,27.2
2017-08-09T05:53:57.530Z,27.1
2017-08-09T05:54:52.531Z,27.2
2017-08-09T05:56:00.027Z,27.2
2017-08-09T05:56:52.809Z,27.3
2017-08-09T05:57:52.240Z,27.3
2017-08-09T05:58:52.047Z,27.3
2017-08-09T05:59:52.332Z,27.3
2017-08-09T06:00:56.867Z,27.3
2017-08-09T06:01:55.257Z,27.2
2017-08-09T06:02:55.369Z,27.2
2017-08-09T06:03:52.736Z,27.1
2017-08-09T06:04:56.212Z,27.2
2017-08-09T06:05:56.910Z,27.2
2017-08-09T06:06:53.083Z,27.2
2017-08-09T06:07:52.837Z,27.2
2017-08-09T06:08:52.762Z,27.1
2017-08-09T06:09:58.765Z,27.2
2017-08-09T06:10:55.467Z,27.2
2017-08-09T06:11:54.777Z,27.2
2017-08-09T06:12:56.252Z,27.2
2017-08-09T06:13:53.113Z,27.2
2017-08-09T06:14:56.338Z,27.2
2017-08-09T06:15:54.221Z,27.2
2017-08-09T06:16:59.981Z,27.2
2017-08-09T06:17:55.888Z,27.2
2017-08-09T06:18:54.158Z,27.2
2017-08-09T06:19:53.027Z,27.2
2017-08-09T06:20:56.239Z,27.2
2017-08-09T06:21:59.071Z,27.3
2017-08-09T06:22:53.490Z,27.4
2017-08-09T06:23:56.407Z,27.5
2017-08-09T06:24:54.277Z,27.5
2017-08-09T06:25:59.825Z,27.6
2017-08-09T06:26:58.404Z,27.6
2017-08-09T06:27:56.259Z,27.7
2017-08-09T06:28:53.705Z,27.7
2017-08-09T06:29:53.552Z,27.7
2017-08-09T06:30:53.854Z,27.8
2017-08-09T06:31:58.481Z,27.9
2017-08-09T06:33:01.327Z,27.9
2017-08-09T06:33:53.850Z,27.9
2017-08-09T06:35:03.115Z,28
2017-08-09T06:35:56.806Z,28
2017-08-09T06:36:57.350Z,28
2017-08-09T06:37:53.818Z,28
2017-08-09T06:38:54.110Z,28.1
2017-08-09T06:40:00.993Z,28.1
2017-08-09T06:40:54.098Z,28.2
2017-08-09T06:41:54.240Z,28.2
2017-08-09T06:42:57.393Z,28.2
2017-08-09T06:43:59.334Z,28.2
2017-08-09T06:44:59.333Z,28.2
2017-08-09T06:45:54.415Z,28.2
2017-08-09T06:46:57.355Z,28.3
2017-08-09T06:47:54.271Z,28.3
2017-08-09T06:48:56.403Z,28.3
2017-08-09T06:49:57.712Z,28.4
2017-08-09T06:51:00.209Z,28.4
2017-08-09T06:51:54.714Z,28.5
2017-08-09T06:52:54.470Z,28.5
2017-08-09T06:54:02.117Z,28.5
2017-08-09T06:54:55.544Z,28.6
2017-08-09T06:55:54.890Z,28.6
2017-08-09T06:57:01.124Z,28.7
2017-08-09T06:57:57.913Z,28.7
2017-08-09T06:58:55.963Z,28.8
2017-08-09T06:59:54.721Z,28.8
2017-08-09T07:00:55.326Z,28.9
2017-08-09T07:01:55.204Z,28.9
2017-08-09T07:02:55.855Z,29
2017-08-09T07:03:54.934Z,29.1
2017-08-09T07:04:54.973Z,29.1
2017-08-09T07:06:00.006Z,29.1
2017-08-09T07:07:00.663Z,29.2
2017-08-09T07:07:58.372Z,29.3
2017-08-09T07:09:02.186Z,29.3
2017-08-09T07:10:01.668Z,29.4
2017-08-09T07:10:55.635Z,29.4
2017-08-09T07:11:56.380Z,29.5
2017-08-09T07:13:03.373Z,29.5
2017-08-09T07:13:59.303Z,29.6
2017-08-09T07:14:58.711Z,29.6
2017-08-09T07:16:01.555Z,29.7
2017-08-09T07:17:00.616Z,29.8
2017-08-09T07:17:56.284Z,29.8
2017-08-09T07:18:56.082Z,29.9
2017-08-09T07:19:56.610Z,29.9
2017-08-09T07:21:01.101Z,30
2017-08-09T07:21:55.793Z,30
2017-08-09T07:23:01.202Z,30
2017-08-09T07:24:01.309Z,30
2017-08-09T07:24:56.262Z,29.9
2017-08-09T07:26:00.862Z,29.9
2017-08-09T07:27:01.849Z,29.9
2017-08-09T07:27:58.921Z,29.8
2017-08-09T07:29:02.383Z,29.9
2017-08-09T07:29:56.448Z,29.8
2017-08-09T07:30:56.740Z,29.8
2017-08-09T07:31:59.372Z,29.8
2017-08-09T07:33:01.600Z,29.8
2017-08-09T07:34:01.421Z,29.7
2017-08-09T07:34:56.849Z,29.7
2017-08-09T07:35:56.828Z,29.6
2017-08-09T07:36:57.574Z,29.6
2017-08-09T07:37:59.673Z,29.5
2017-08-09T07:38:57.770Z,29.5
2017-08-09T07:39:56.921Z,29.5
2017-08-09T07:41:03.959Z,29.5
2017-08-09T07:41:58.038Z,29.6
2017-08-09T07:42:56.998Z,29.6
2017-08-09T07:43:56.806Z,29.5
2017-08-09T07:45:02.451Z,29.5
2017-08-09T07:46:02.124Z,29.5
2017-08-09T07:47:03.733Z,29.5
2017-08-09T07:48:02.975Z,29.5
2017-08-09T07:49:09.073Z,29.7
2017-08-09T07:49:57.297Z,29.7
2017-08-09T07:51:00.478Z,29.8
2017-08-09T07:51:58.746Z,29.8
2017-08-09T07:52:58.055Z,29.7
2017-08-09T07:54:02.787Z,29.8
2017-08-09T07:55:00.370Z,29.7
2017-08-09T07:55:57.238Z,29.6
2017-08-09T07:57:01.058Z,29.5
2017-08-09T07:57:58.735Z,29.5
2017-08-09T07:59:01.319Z,29.4
2017-08-09T07:59:57.705Z,29.4
2017-08-09T08:01:05.280Z,29.5
2017-08-09T08:02:02.572Z,29.5
2017-08-09T08:03:02.524Z,29.5
2017-08-09T08:04:04.053Z,29.5
2017-08-09T08:04:57.596Z,29.5
2017-08-09T08:06:02.673Z,29.5
2017-08-09T08:06:58.563Z,29.6
2017-08-09T08:08:00.569Z,29.6
2017-08-09T08:09:03.459Z,29.6
2017-08-09T08:10:02.301Z,29.5
2017-08-09T08:10:59.405Z,29.6
2017-08-09T08:11:59.152Z,29.7
2017-08-09T08:13:01.737Z,29.7
2017-08-09T08:13:58.633Z,29.8
2017-08-09T08:15:03.758Z,29.8
2017-08-09T08:15:58.149Z,29.8
2017-08-09T08:17:03.937Z,29.8
2017-08-09T08:18:06.460Z,29.8
2017-08-09T08:19:05.851Z,29.9
2017-08-09T08:19:58.479Z,29.9
2017-08-09T08:21:02.815Z,29.9
2017-08-09T08:22:05.753Z,30
2017-08-09T08:23:01.934Z,30
2017-08-09T08:24:04.762Z,30
2017-08-09T08:24:58.901Z,30.1
2017-08-09T08:26:02.044Z,30.1
2017-08-09T08:27:02.732Z,30.2
2017-08-09T08:28:06.542Z,30.3
2017-08-09T08:29:03.768Z,30.3
2017-08-09T08:30:03.754Z,30.3
2017-08-09T08:31:02.095Z,30.3
2017-08-09T08:31:59.194Z,30.3
2017-08-09T08:33:02.165Z,30.3
2017-08-09T08:34:08.612Z,30.3
2017-08-09T08:35:05.156Z,30.3
2017-08-09T08:35:59.416Z,30.3
2017-08-09T08:37:04.449Z,30.3
2017-08-09T08:38:00.287Z,30.3
2017-08-09T08:39:05.618Z,30.4
2017-08-09T08:40:00.274Z,30.4
2017-08-09T08:41:03.658Z,30.5
2017-08-09T08:42:04.824Z,30.5
2017-08-09T08:43:06.536Z,30.6
2017-08-09T08:44:03.886Z,30.6
2017-08-09T08:45:04.686Z,30.7
2017-08-09T08:46:01.654Z,30.8
2017-08-09T08:47:03.386Z,30.9
2017-08-09T08:48:04.856Z,31
2017-08-09T08:49:01.148Z,31.1
2017-08-09T08:50:00.303Z,31.1
2017-08-09T08:51:00.082Z,31.1
2017-08-09T08:52:00.229Z,31.2
2017-08-09T08:53:04.273Z,31.2
2017-08-09T08:54:01.079Z,31.2
2017-08-09T08:55:00.948Z,31.2
2017-08-09T08:56:08.852Z,31.3
2017-08-09T08:57:04.591Z,31.3
2017-08-09T08:58:06.688Z,31.3
2017-08-09T08:59:06.784Z,31.3
2017-08-09T09:00:06.704Z,31.2
2017-08-09T09:01:07.099Z,31.2
2017-08-09T09:02:01.237Z,31
2017-08-09T09:03:03.828Z,30.9
2017-08-09T09:04:03.873Z,30.8
2017-08-09T09:05:00.877Z,30.6
2017-08-09T09:06:01.141Z,30.5
2017-08-09T09:07:04.206Z,30.4
2017-08-09T09:08:01.137Z,30.3
2017-08-09T09:09:04.289Z,30.2
2017-08-09T09:10:01.159Z,30.1
2017-08-09T09:11:01.546Z,30
2017-08-09T09:12:01.734Z,30
2017-08-09T09:13:04.649Z,29.9
2017-08-09T09:14:04.345Z,29.9
2017-08-09T09:15:05.208Z,29.9
2017-08-09T09:16:01.629Z,29.9
2017-08-09T09:17:02.117Z,29.8
2017-08-09T09:18:02.641Z,29.7
2017-08-09T09:19:02.769Z,29.6
2017-08-09T09:20:06.837Z,29.6
2017-08-09T09:21:04.762Z,29.6
2017-08-09T09:22:02.557Z,29.6
2017-08-09T09:23:05.274Z,29.6
2017-08-09T09:24:05.366Z,29.6
2017-08-09T09:25:05.514Z,29.6
2017-08-09T09:26:02.301Z,29.6
2017-08-09T09:27:03.310Z,29.6
2017-08-09T09:28:02.263Z,29.6
2017-08-09T09:29:02.605Z,29.7
2017-08-09T09:30:14.965Z,29.7
2017-08-09T09:31:07.181Z,29.7
2017-08-09T09:32:07.919Z,29.7
2017-08-09T09:33:05.763Z,29.7
2017-08-09T09:34:08.474Z,29.8
2017-08-09T09:35:05.593Z,29.7
2017-08-09T09:36:06.332Z,29.7
2017-08-09T09:37:10.001Z,29.8
2017-08-09T09:38:04.160Z,29.8
2017-08-09T09:39:03.638Z,29.8
2017-08-09T09:40:04.416Z,29.9
2017-08-09T09:41:06.001Z,29.9
2017-08-09T09:42:06.603Z,29.9
2017-08-09T09:43:07.979Z,29.9
2017-08-09T09:44:06.743Z,29.9
2017-08-09T09:45:09.299Z,29.9
2017-08-09T09:46:03.699Z,29.9
2017-08-09T09:47:03.363Z,29.9
2017-08-09T09:48:03.611Z,29.9
2017-08-09T09:49:09.466Z,29.9
2017-08-09T09:50:06.562Z,29.9
2017-08-09T09:51:06.688Z,30
2017-08-09T09:52:03.801Z,30
2017-08-09T09:53:04.699Z,30
2017-08-09T09:54:04.652Z,30.1
2017-08-09T09:55:09.078Z,30.1
2017-08-09T09:56:05.681Z,30.2
2017-08-09T09:57:09.726Z,30.2
2017-08-09T09:58:06.754Z,30.2
2017-08-09T09:59:07.707Z,30.2
2017-08-09T10:00:04.231Z,30.2
2017-08-09T10:01:05.131Z,30.2
2017-08-09T10:02:06.289Z,30.2
2017-08-09T10:03:05.615Z,30.2
2017-08-09T10:04:05.905Z,30.2
2017-08-09T10:05:05.970Z,30.1
2017-08-09T10:06:08.608Z,30.1
2017-08-09T10:07:09.405Z,30
2017-08-09T10:08:09.624Z,30
2017-08-09T10:09:08.202Z,29.9
2017-08-09T10:10:07.081Z,29.9
2017-08-09T10:11:06.452Z,29.8
2017-08-09T10:12:07.766Z,29.8
2017-08-09T10:13:08.764Z,29.8
2017-08-09T10:14:09.959Z,29.8
2017-08-09T10:15:08.761Z,29.8
2017-08-09T10:16:12.032Z,29.8
2017-08-09T10:17:14.763Z,29.8
2017-08-09T10:18:10.157Z,29.7
2017-08-09T10:19:05.481Z,29.7
2017-08-09T10:20:06.364Z,29.7
2017-08-09T10:21:06.923Z,29.7
2017-08-09T10:22:11.799Z,29.8
2017-08-09T10:23:11.383Z,29.8
2017-08-09T10:24:08.241Z,29.9
2017-08-09T10:25:06.252Z,30
2017-08-09T10:26:07.210Z,30
2017-08-09T10:27:13.388Z,30
2017-08-09T10:28:14.607Z,30.1
2017-08-09T10:29:09.078Z,30
2017-08-09T10:30:08.735Z,30.1
2017-08-09T10:31:10.395Z,30.1
2017-08-09T10:32:09.281Z,30.2
2017-08-09T10:33:06.237Z,30.1
2017-08-09T10:34:06.089Z,29.9
2017-08-09T10:35:11.083Z,30.2
2017-08-09T10:36:06.680Z,30.2
2017-08-09T10:37:10.076Z,30.2
2017-08-09T10:38:11.026Z,30.3
2017-08-09T10:39:06.612Z,30.3
2017-08-09T10:40:07.836Z,30.3
2017-08-09T10:41:12.197Z,30.3
2017-08-09T10:42:07.228Z,30.3
2017-08-09T10:43:07.522Z,30.3
2017-08-09T10:44:12.027Z,30.2
2017-08-09T10:45:07.254Z,30.3
2017-08-09T10:46:09.969Z,30.3
2017-08-09T10:47:07.358Z,30.3
2017-08-09T10:48:10.918Z,30.3
2017-08-09T10:49:12.500Z,30.3
2017-08-09T10:50:06.700Z,30.3
2017-08-09T10:51:10.667Z,30.3
2017-08-09T10:52:06.716Z,30.3
2017-08-09T10:53:07.201Z,30.2
2017-08-09T10:54:12.520Z,30.2
2017-08-09T10:55:11.776Z,30.1
2017-08-09T10:56:06.803Z,30.1
2017-08-09T10:57:07.557Z,30.1
2017-08-09T10:58:12.153Z,30.1
2017-08-09T10:59:09.838Z,30.1
2017-08-09T11:00:10.897Z,30.1
2017-08-09T11:01:08.127Z,30.1
2017-08-09T11:02:10.674Z,30.1
2017-08-09T11:03:08.351Z,30.1
2017-08-09T11:04:10.438Z,30.1
2017-08-09T11:05:08.256Z,30.1
2017-08-09T11:06:12.645Z,30.1
2017-08-09T11:07:07.380Z,30.1
2017-08-09T11:08:07.864Z,30.2
2017-08-09T11:09:08.749Z,30.2
2017-08-09T11:10:11.157Z,30.2
2017-08-09T11:11:07.541Z,30.2
2017-08-09T11:12:10.131Z,30.2
2017-08-09T11:13:08.551Z,30.2
2017-08-09T11:14:18.593Z,30.2
2017-08-09T11:16:16.291Z,30.2
2017-08-09T11:17:13.984Z,30.2
2017-08-09T11:18:11.866Z,30.2
2017-08-09T11:19:12.519Z,30.2
2017-08-09T11:20:11.281Z,30.3
2017-08-09T11:21:10.461Z,30.3
2017-08-09T11:22:16.932Z,30.3
2017-08-09T11:23:09.011Z,30.3
2017-08-09T11:24:10.023Z,30.3
2017-08-09T11:25:09.952Z,30.3
2017-08-09T11:26:12.869Z,30.3
2017-08-09T11:27:13.810Z,30.3
2017-08-09T11:28:18.693Z,30.4
2017-08-09T11:29:21.294Z,30.3
2017-08-09T11:30:14.039Z,30.3
2017-08-09T11:31:17.241Z,30.3
2017-08-09T11:32:16.473Z,30.3
2017-08-09T11:33:12.513Z,30.4
2017-08-09T11:34:09.704Z,30.4
2017-08-09T11:35:16.701Z,30.4
2017-08-09T11:36:15.076Z,30.5
2017-08-09T11:37:10.657Z,30.5
2017-08-09T11:38:13.344Z,30.5
2017-08-09T11:39:13.148Z,30.5
2017-08-09T11:40:13.372Z,30.4
2017-08-09T11:41:13.014Z,30.4
2017-08-09T11:42:14.390Z,30.4
2017-08-09T11:43:09.455Z,30.4
2017-08-09T11:44:16.237Z,30.5
2017-08-09T11:45:09.601Z,30.4
2017-08-09T11:46:12.194Z,30.4
2017-08-09T11:47:15.399Z,30.4
2017-08-09T11:48:10.888Z,30.4
2017-08-09T11:49:15.497Z,30.4
2017-08-09T11:50:10.124Z,30.4
2017-08-09T11:51:12.569Z,30.5
2017-08-09T11:52:10.484Z,30.6
2017-08-09T11:53:10.320Z,30.6
2017-08-09T11:54:09.881Z,30.6
2017-08-09T11:55:15.522Z,30.6
2017-08-09T11:56:13.130Z,30.6
2017-08-09T11:57:10.837Z,30.6
2017-08-09T11:58:13.865Z,30.6
2017-08-09T11:59:14.501Z,30.7
2017-08-09T12:00:11.660Z,30.6
2017-08-09T12:01:12.466Z,30.6
2017-08-09T12:02:10.672Z,30.6
2017-08-09T12:03:16.445Z,30.7
2017-08-09T12:04:15.429Z,30.7
2017-08-09T12:05:10.986Z,30.8
2017-08-09T12:06:13.990Z,30.8
2017-08-09T12:07:11.196Z,30.8
2017-08-09T12:08:10.699Z,30.8
2017-08-09T12:09:11.283Z,30.9
2017-08-09T12:10:11.403Z,30.8
2017-08-09T12:11:13.115Z,30.9
2017-08-09T12:12:11.121Z,30.9
2017-08-09T12:13:11.953Z,30.9
2017-08-09T12:14:15.005Z,31
2017-08-09T12:15:18.328Z,31.1
2017-08-09T12:16:12.622Z,31.1
2017-08-09T12:17:17.065Z,31.2
2017-08-09T12:18:14.591Z,31.2
2017-08-09T12:19:16.359Z,31.2
2017-08-09T12:20:17.161Z,31.2
2017-08-09T12:21:16.195Z,31.2
2017-08-09T12:22:17.150Z,31.2
2017-08-09T12:23:13.157Z,31.3
2017-08-09T12:24:12.981Z,31.4
2017-08-09T12:25:22.385Z,31.4
2017-08-09T12:26:12.600Z,31.4
2017-08-09T12:27:11.376Z,31.5
2017-08-09T12:28:12.121Z,31.5
2017-08-09T12:29:11.936Z,31.5
2017-08-09T12:30:12.601Z,31.5
2017-08-09T12:31:16.025Z,31.5
2017-08-09T12:32:17.517Z,31.5
2017-08-09T12:33:15.415Z,31.5
2017-08-09T12:34:18.292Z,31.5
2017-08-09T12:35:18.238Z,31.5
2017-08-09T12:36:17.378Z,31.5
2017-08-09T12:37:16.382Z,31.5
2017-08-09T12:38:16.062Z,31.5
2017-08-09T12:39:17.191Z,31.5
2017-08-09T12:40:20.508Z,31.5
2017-08-09T12:41:17.683Z,31.6
2017-08-09T12:42:16.702Z,31.6
2017-08-09T12:43:16.120Z,31.6
2017-08-09T12:44:12.328Z,31.6
2017-08-09T12:45:13.082Z,31.6
2017-08-09T12:46:12.446Z,31.6
2017-08-09T12:47:18.360Z,31.6
2017-08-09T12:48:15.834Z,31.5
2017-08-09T12:49:13.687Z,31.6
2017-08-09T12:50:14.507Z,31.6
2017-08-09T12:51:20.377Z,31.6
2017-08-09T12:52:19.082Z,31.6
2017-08-09T12:53:13.252Z,31.6
2017-08-09T12:54:14.847Z,31.6
2017-08-09T12:55:13.322Z,31.6
2017-08-09T12:56:13.955Z,31.5
2017-08-09T12:57:17.195Z,31.5
2017-08-09T12:58:13.911Z,31.5
2017-08-09T12:59:14.669Z,31.5
2017-08-09T13:00:19.274Z,31.6
2017-08-09T13:01:19.164Z,31.6
2017-08-09T13:02:19.925Z,31.6
2017-08-09T13:03:19.023Z,31.6
2017-08-09T13:04:20.442Z,31.7
2017-08-09T13:05:18.911Z,31.7
2017-08-09T13:06:14.127Z,31.5
2017-08-09T13:07:13.916Z,31.5
2017-08-09T13:08:13.906Z,31.4
2017-08-09T13:09:14.215Z,31.4
2017-08-09T13:10:19.479Z,31.5
2017-08-09T13:11:17.938Z,31.5
2017-08-09T13:12:14.106Z,31.5
2017-08-09T13:13:14.839Z,31.6
2017-08-09T13:14:18.902Z,31.6
2017-08-09T13:15:13.993Z,31.6
2017-08-09T13:16:14.097Z,31.6
2017-08-09T13:17:14.428Z,31.5
2017-08-09T13:18:14.372Z,31.5
2017-08-09T13:19:15.721Z,31.5
2017-08-09T13:20:21.288Z,31.4
2017-08-09T13:21:17.375Z,31.4
2017-08-09T13:22:15.510Z,31.4
2017-08-09T13:23:15.651Z,31.5